Time;durP1;ratioP1;P1;durP2;ratioP2;P2;SDS_P1;SDS_P2;PMS_P1;PMS_P2;Temp;Humidity;BMP_temperature;BMP_pressure;BME280_temperature;BME280_humidity;BME280_pressure;Samples;Min_cycle;Max_cycle;Signal;HPM_P1;HPM_P2
2022/02/15 00:01:54;;;;;;;32.78;19.02;;;;;;;3.96;53.80;99584.06;5111190;28;20044;-73
2022/02/15 00:04:22;;;;;;;35.80;18.42;;;;;;;3.95;53.75;99591.97;5098908;28;20064;-73
2022/02/15 00:06:50;;;;;;;29.77;19.17;;;;;;;3.93;53.87;99589.44;5091017;28;20068;-74
2022/02/15 00:09:17;;;;;;;39.70;19.77;;;;;;;3.89;53.90;99582.72;5101891;28;20110;-75
2022/02/15 00:11:44;;;;;;;44.17;21.77;;;;;;;3.88;53.92;99578.41;5107809;28;20045;-74
2022/02/15 00:14:11;;;;;;;35.83;17.75;;;;;;;3.88;53.91;99586.25;5097298;28;20043;-73
2022/02/15 00:16:38;;;;;;;34.42;18.23;;;;;;;3.88;53.96;99582.81;5111117;28;20040;-74
2022/02/15 00:19:06;;;;;;;36.78;19.23;;;;;;;3.86;53.86;99585.50;5090760;28;20112;-72
2022/02/15 00:21:33;;;;;;;32.67;17.00;;;;;;;3.82;53.97;99584.00;5084951;28;20133;-72
2022/02/15 00:24:01;;;;;;;39.47;21.45;;;;;;;3.79;54.04;99579.75;5088616;28;20131;-73
2022/02/15 00:26:28;;;;;;;45.30;21.58;;;;;;;3.77;53.92;99578.16;5104559;28;20052;-74
2022/02/15 00:28:56;;;;;;;42.17;20.70;;;;;;;3.75;53.96;99580.03;5086791;28;20115;-73
2022/02/15 00:31:24;;;;;;;42.00;20.25;;;;;;;3.72;54.08;99569.75;5084943;28;20079;-72
2022/02/15 00:33:51;;;;;;;34.33;19.17;;;;;;;3.71;54.08;99570.66;5103238;28;20124;-73
2022/02/15 00:36:18;;;;;;;35.38;19.35;;;;;;;3.68;54.12;99570.84;5083789;28;20076;-72
2022/02/15 00:38:45;;;;;;;45.33;20.63;;;;;;;3.63;54.06;99574.53;5094627;28;20117;-72
2022/02/15 00:41:13;;;;;;;39.97;20.42;;;;;;;3.61;54.26;99571.16;5103555;28;20095;-72
2022/02/15 00:43:40;;;;;;;39.67;19.48;;;;;;;3.56;54.09;99578.41;5104290;28;20119;-74
2022/02/15 00:46:07;;;;;;;36.05;20.95;;;;;;;3.53;54.12;99562.94;5104656;28;20211;-73
2022/02/15 00:48:34;;;;;;;40.10;19.13;;;;;;;3.52;54.24;99566.44;5099758;28;20111;-72
2022/02/15 00:51:01;;;;;;;43.13;21.55;;;;;;;3.49;54.21;99568.38;5081455;28;20076;-74
2022/02/15 00:53:28;;;;;;;36.25;19.10;;;;;;;3.49;54.06;99560.56;5091107;28;20091;-76
2022/02/15 00:55:55;;;;;;;40.08;18.73;;;;;;;3.48;54.29;99562.31;5099760;28;20083;-75
2022/02/15 00:58:23;;;;;;;37.97;18.73;;;;;;;3.49;54.41;99565.78;5080780;28;20135;-73
2022/02/15 01:00:50;;;;;;;35.30;18.98;;;;;;;3.48;54.26;99562.31;5087915;28;20050;-73
2022/02/15 01:03:17;;;;;;;46.50;24.65;;;;;;;3.49;54.48;99555.31;5099936;28;20092;-75
2022/02/15 01:05:44;;;;;;;34.45;20.45;;;;;;;3.50;54.36;99560.47;5088792;28;20146;-73
2022/02/15 01:08:12;;;;;;;41.17;19.70;;;;;;;3.52;54.19;99561.22;5105382;28;20055;-72
2022/02/15 01:10:39;;;;;;;34.92;18.98;;;;;;;3.53;54.42;99556.84;5109440;28;20034;-73
2022/02/15 01:13:06;;;;;;;32.47;19.30;;;;;;;3.55;54.38;99561.06;5105501;28;20071;-73
2022/02/15 01:15:35;;;;;;;40.10;19.55;;;;;;;3.56;54.28;99560.13;5101535;28;20124;-74
2022/02/15 01:18:02;;;;;;;40.13;20.42;;;;;;;3.55;54.37;99550.63;5085368;28;20052;-73
2022/02/15 01:20:29;;;;;;;36.15;20.15;;;;;;;3.55;54.24;99549.78;5067965;28;20480;-72
2022/02/15 01:22:56;;;;;;;38.28;19.17;;;;;;;3.55;54.37;99558.47;5069304;28;20055;-73
2022/02/15 01:25:26;;;;;;;37.13;19.92;;;;;;;3.56;54.37;99549.69;5071458;28;20128;-75
2022/02/15 01:27:53;;;;;;;38.20;19.75;;;;;;;3.56;54.25;99560.13;5094487;28;20044;-73
2022/02/15 01:30:20;;;;;;;31.33;19.45;;;;;;;3.52;54.38;99550.78;5098701;28;20071;-72
2022/02/15 01:32:49;;;;;;;39.85;19.83;;;;;;;3.52;54.24;99553.38;5079382;28;20064;-71
2022/02/15 01:35:17;;;;;;;38.00;20.70;;;;;;;3.49;54.27;99550.09;5088750;28;20673;-74
2022/02/15 01:37:44;;;;;;;33.13;16.75;;;;;;;3.46;54.31;99553.75;5080225;28;20072;-73
2022/02/15 01:40:12;;;;;;;38.22;19.17;;;;;;;3.44;54.43;99543.38;5080353;28;20127;-73
2022/02/15 01:42:39;;;;;;;33.85;17.95;;;;;;;3.44;54.32;99540.75;5072199;28;20041;-74
2022/02/15 01:45:10;;;;;;;39.83;19.08;;;;;;;3.41;54.48;99543.53;5092430;28;20047;-73
2022/02/15 01:47:37;;;;;;;28.17;17.50;;;;;;;3.38;54.52;99537.63;5077129;28;20204;-76
2022/02/15 01:50:07;;;;;;;35.20;18.48;;;;;;;3.37;54.42;99541.19;5078678;28;20168;-75
2022/02/15 01:52:34;;;;;;;36.50;19.80;;;;;;;3.32;54.57;99532.75;5086588;28;20044;-75
2022/02/15 01:55:02;;;;;;;36.22;19.42;;;;;;;3.31;54.61;99531.06;5088277;28;20072;-74
2022/02/15 01:57:29;;;;;;;43.58;21.85;;;;;;;3.29;54.73;99535.53;5071767;28;20048;-75
2022/02/15 01:59:57;;;;;;;32.28;18.65;;;;;;;3.26;54.80;99526.09;5089107;28;20040;-75
2022/02/15 02:02:24;;;;;;;36.35;21.73;;;;;;;3.27;54.57;99526.94;5081733;28;20052;-76
2022/02/15 02:07:37;;;;;;;34.40;17.73;;;;;;;3.22;54.59;99517.59;5087423;28;20291;-75
2022/02/15 02:10:04;;;;;;;35.47;18.50;;;;;;;3.22;54.71;99516.75;5089074;28;20098;-74
2022/02/15 02:12:31;;;;;;;31.95;18.92;;;;;;;3.18;54.88;99510.00;5072084;28;20108;-75
2022/02/15 02:14:59;;;;;;;31.17;17.20;;;;;;;3.16;54.99;99514.47;5091098;28;20048;-75
2022/02/15 02:17:26;;;;;;;34.78;20.73;;;;;;;3.16;54.98;99507.47;5079800;28;20494;-75
2022/02/15 02:19:55;;;;;;;33.17;19.13;;;;;;;3.16;55.03;99509.25;5073727;28;20046;-75
2022/02/15 02:22:25;;;;;;;32.05;18.10;;;;;;;3.16;54.85;99515.31;5071682;28;20052;-75
2022/02/15 02:24:52;;;;;;;27.50;17.15;;;;;;;3.13;55.01;99507.63;5070766;28;20044;-75
2022/02/15 02:27:27;;;;;;;35.13;20.05;;;;;;;3.14;55.14;99508.50;5104380;28;20450;-76
2022/02/15 02:29:55;;;;;;;;;;;;;;;3.36;54.36;99500.34;5109593;28;20138;-75
2022/02/15 02:32:22;;;;;;;33.70;16.88;;;;;;;3.18;54.62;99516.06;5090268;28;20018;-75
2022/02/15 02:34:49;;;;;;;40.47;19.27;;;;;;;3.13;54.77;99515.47;5098293;28;20071;-74
2022/02/15 02:37:16;;;;;;;30.98;16.58;;;;;;;3.09;54.95;99515.72;5109471;28;20046;-74
2022/02/15 02:39:47;;;;;;;33.08;18.17;;;;;;;3.10;55.14;99513.03;5096393;28;20583;-73
2022/02/15 02:42:17;;;;;;;36.00;19.88;;;;;;;3.08;55.31;99509.66;5092386;28;20083;-75
2022/02/15 02:44:44;;;;;;;36.13;19.35;;;;;;;3.06;55.20;99508.88;5107228;28;20094;-72
2022/02/15 02:47:11;;;;;;;33.88;18.65;;;;;;;3.11;55.63;99519.09;5090331;28;20547;-73
2022/02/15 02:49:39;;;;;;;31.90;17.05;;;;;;;3.09;55.26;99521.78;5106386;28;20130;-72
2022/02/15 02:52:06;;;;;;;31.55;18.40;;;;;;;3.10;55.04;99523.47;5101753;28;20050;-72
2022/02/15 02:54:33;;;;;;;38.65;18.48;;;;;;;3.09;55.20;99520.94;5090522;28;20106;-73
2022/02/15 02:57:03;;;;;;;35.70;18.85;;;;;;;3.08;55.05;99517.50;5103664;28;20146;-73
2022/02/15 02:59:31;;;;;;;43.58;21.95;;;;;;;3.10;55.21;99520.88;5115451;28;20050;-74
2022/02/15 03:01:58;;;;;;;38.83;20.83;;;;;;;3.05;55.33;99515.88;5101252;28;20127;-73
2022/02/15 03:04:25;;;;;;;37.90;20.35;;;;;;;3.06;55.32;99524.53;5104712;28;20564;-71
2022/02/15 03:06:53;;;;;;;34.80;19.95;;;;;;;3.06;55.10;99519.31;5114507;28;20130;-73
2022/02/15 03:09:20;;;;;;;33.50;20.10;;;;;;;3.03;55.21;99515.13;5113596;28;20179;-73
2022/02/15 03:11:47;;;;;;;37.92;20.02;;;;;;;3.02;55.44;99510.81;5105439;28;20040;-72
2022/02/15 03:14:15;;;;;;;36.13;20.38;;;;;;;3.03;55.47;99520.34;5091469;28;20090;-69
2022/02/15 03:16:42;;;;;;;41.03;19.33;;;;;;;2.99;55.47;99516.22;5090709;28;20044;-73
2022/02/15 03:19:09;;;;;;;38.38;19.90;;;;;;;3.01;55.60;99523.97;5088680;28;20058;-73
2022/02/15 03:21:36;;;;;;;35.42;19.63;;;;;;;2.99;55.41;99520.56;5091740;28;20360;-72
2022/02/15 03:24:04;;;;;;;37.35;20.08;;;;;;;2.99;55.49;99518.81;5106735;28;20162;-72
2022/02/15 03:26:31;;;;;;;34.47;19.13;;;;;;;3.00;55.63;99519.66;5111314;28;20051;-73
2022/02/15 03:28:58;;;;;;;39.47;20.23;;;;;;;2.97;55.55;99520.69;5102488;28;20166;-72
2022/02/15 03:31:27;;;;;;;41.35;18.83;;;;;;;2.97;55.67;99525.03;5102917;28;20114;-74
2022/02/15 03:33:54;;;;;;;43.95;22.08;;;;;;;2.93;55.70;99513.91;5092090;28;20056;-74
2022/02/15 03:36:22;;;;;;;38.33;19.52;;;;;;;2.93;55.81;99519.13;5110865;28;20071;-75
2022/02/15 03:38:49;;;;;;;42.72;22.10;;;;;;;2.91;55.61;99512.31;5095997;28;20080;-75
2022/02/15 03:44:00;;;;;;;35.90;20.33;;;;;;;2.92;55.66;99509.63;5108409;28;20042;-74
2022/02/15 03:46:29;;;;;;;36.25;19.95;;;;;;;2.91;55.82;99509.72;5070542;28;20460;-73
2022/02/15 03:48:56;;;;;;;41.95;21.85;;;;;;;2.90;55.96;99513.25;5103985;28;20044;-75
2022/02/15 03:51:23;;;;;;;39.92;22.00;;;;;;;2.87;55.78;99502.03;5090717;28;20116;-73
2022/02/15 03:53:50;;;;;;;44.58;21.27;;;;;;;2.87;55.87;99504.66;5089946;28;20424;-72
2022/02/15 03:56:17;;;;;;;35.13;21.20;;;;;;;2.89;56.11;99508.97;5095883;28;20118;-74
2022/02/15 03:58:46;;;;;;;38.70;19.35;;;;;;;2.89;55.85;99506.34;5098598;28;20123;-73
2022/02/15 04:01:13;;;;;;;42.95;21.83;;;;;;;2.85;56.15;99509.13;5095679;28;20109;-73
2022/02/15 04:03:42;;;;;;;35.88;21.45;;;;;;;2.85;56.17;99503.91;5097074;28;20083;-74
2022/02/15 04:06:09;;;;;;;35.80;20.27;;;;;;;2.85;56.16;99508.28;5106887;28;20132;-73
2022/02/15 04:08:36;;;;;;;38.05;21.27;;;;;;;2.86;56.20;99510.81;5100883;28;20050;-72
2022/02/15 04:11:03;;;;;;;33.08;20.30;;;;;;;2.85;55.98;99514.31;5109574;28;20042;-73
2022/02/15 04:13:31;;;;;;;33.28;20.50;;;;;;;2.84;56.05;99511.78;5111651;28;20099;-73
2022/02/15 04:15:58;;;;;;;34.15;22.25;;;;;;;2.83;56.31;99508.34;5107955;28;20097;-72
2022/02/15 04:18:25;;;;;;;32.55;21.33;;;;;;;2.81;56.15;99512.81;5107070;28;20075;-72
2022/02/15 04:20:53;;;;;;;35.33;20.63;;;;;;;2.82;56.42;99505.81;5106284;28;20048;-72
2022/02/15 04:23:20;;;;;;;36.83;20.92;;;;;;;2.79;56.33;99504.22;5111304;28;20063;-73
2022/02/15 04:25:47;;;;;;;38.50;21.20;;;;;;;2.78;56.38;99515.56;5098564;28;20058;-74
2022/02/15 04:28:14;;;;;;;45.40;21.88;;;;;;;2.77;56.25;99511.25;5077777;28;20056;-70
2022/02/15 04:30:41;;;;;;;37.58;19.95;;;;;;;2.75;56.42;99520.94;5083854;28;20507;-71
2022/02/15 04:33:08;;;;;;;36.33;20.67;;;;;;;2.75;56.40;99518.31;5084146;28;20159;-72
2022/02/15 04:35:35;;;;;;;35.05;20.17;;;;;;;2.76;56.32;99511.38;5090529;28;20050;-72
2022/02/15 04:38:03;;;;;;;40.28;21.27;;;;;;;2.76;56.52;99520.03;5092593;28;20054;-73
2022/02/15 04:40:31;;;;;;;33.78;20.23;;;;;;;2.75;56.62;99520.09;5092477;28;20127;-72
2022/02/15 04:43:00;;;;;;;36.20;20.75;;;;;;;2.75;56.53;99522.72;5072779;28;20117;-75
2022/02/15 04:45:26;;;;;;;33.47;19.25;;;;;;;2.73;56.48;99530.59;5073118;28;20139;-74
2022/02/15 04:47:53;;;;;;;38.53;21.40;;;;;;;2.71;56.73;99521.19;5088199;28;20044;-75
2022/02/15 04:50:21;;;;;;;41.03;20.70;;;;;;;2.71;56.71;99526.41;5087299;28;20123;-74
2022/02/15 04:52:48;;;;;;;39.67;20.55;;;;;;;2.71;56.73;99531.63;5088184;28;20543;-74
2022/02/15 04:55:17;;;;;;;31.55;20.70;;;;;;;2.69;56.79;99518.66;5082592;28;20070;-77
2022/02/15 04:57:44;;;;;;;36.45;20.52;;;;;;;2.69;56.98;99518.66;5087383;28;20040;-72
2022/02/15 05:00:13;;;;;;;39.33;21.45;;;;;;;2.69;56.96;99513.44;5080452;28;20052;-71
2022/02/15 05:02:40;;;;;;;44.63;22.20;;;;;;;2.74;56.73;99516.66;5076567;28;20139;-72
2022/02/15 05:05:08;;;;;;;38.90;21.45;;;;;;;2.73;56.77;99520.19;5075207;28;20105;-73
2022/02/15 05:07:35;;;;;;;42.78;21.70;;;;;;;2.76;56.84;99520.03;5071044;28;20047;-72
2022/02/15 05:10:03;;;;;;;49.78;22.92;;;;;;;2.78;57.08;99512.13;5078448;28;20131;-75
2022/02/15 05:12:33;;;;;;;42.03;20.75;;;;;;;2.79;57.14;99511.19;5081436;28;20109;-73
2022/02/15 05:15:00;;;;;;;44.78;22.00;;;;;;;2.80;57.10;99513.72;5078210;28;20056;-73
2022/02/15 05:17:27;;;;;;;43.45;23.90;;;;;;;2.81;57.05;99518.03;5085467;28;20127;-72
2022/02/15 05:19:54;;;;;;;42.47;23.40;;;;;;;2.81;57.27;99518.03;5082016;28;20080;-73
2022/02/15 05:22:21;;;;;;;43.65;23.00;;;;;;;2.81;57.12;99507.59;5068039;28;20044;-74
2022/02/15 05:24:48;;;;;;;43.90;23.33;;;;;;;2.81;57.13;99512.81;5077648;28;20225;-74
2022/02/15 05:27:15;;;;;;;40.03;22.60;;;;;;;2.83;57.22;99517.94;5073056;28;20127;-75
2022/02/15 05:29:44;;;;;;;41.95;22.80;;;;;;;2.87;57.08;99520.31;5087035;28;20804;-71
2022/02/15 05:32:12;;;;;;;43.55;23.23;;;;;;;2.90;57.06;99521.06;5080363;28;20135;-73
2022/02/15 05:34:42;;;;;;;40.75;21.17;;;;;;;2.99;56.98;99531.00;5092839;28;20040;-74
2022/02/15 05:37:09;;;;;;;37.80;21.58;;;;;;;3.01;56.74;99523.97;5099990;28;20705;-73
2022/02/15 05:39:36;;;;;;;38.72;22.98;;;;;;;3.02;57.08;99525.63;5088607;28;20555;-78
2022/02/15 05:42:03;;;;;;;39.42;20.67;;;;;;;3.01;56.84;99526.56;5087208;28;20131;-73
2022/02/15 05:44:30;;;;;;;39.47;23.73;;;;;;;3.04;56.86;99523.78;5089330;28;20048;-73
2022/02/15 05:46:59;;;;;;;42.10;22.98;;;;;;;3.07;56.93;99528.84;5086710;28;20048;-73
2022/02/15 05:49:26;;;;;;;37.30;23.80;;;;;;;3.13;56.84;99525.91;5078459;28;20048;-72
2022/02/15 05:51:53;;;;;;;36.13;21.30;;;;;;;3.19;56.85;99522.97;5065164;28;20051;-73
2022/02/15 05:54:20;;;;;;;37.95;21.65;;;;;;;3.22;56.90;99519.34;5065439;28;20044;-71
2022/02/15 05:56:47;;;;;;;38.45;20.58;;;;;;;3.24;56.65;99514.88;5065089;28;20127;-71
2022/02/15 05:59:14;;;;;;;37.90;22.77;;;;;;;3.24;56.75;99515.75;5064666;28;20063;-78
2022/02/15 06:01:43;;;;;;;43.83;23.50;;;;;;;3.21;57.19;99517.69;5089377;28;20131;-74
2022/02/15 06:04:11;;;;;;;44.65;22.63;;;;;;;3.20;57.33;99519.44;5106331;28;20044;-71
2022/02/15 06:06:39;;;;;;;33.78;21.90;;;;;;;3.19;57.17;99504.72;5104579;28;20101;-70
2022/02/15 06:09:07;;;;;;;35.80;19.95;;;;;;;3.20;57.24;99508.16;5104573;28;20047;-72
2022/02/15 06:11:34;;;;;;;36.42;20.55;;;;;;;3.20;57.17;99506.38;5104430;28;20043;-70
2022/02/15 06:14:01;;;;;;;40.90;23.00;;;;;;;3.26;57.16;99497.41;5098445;28;20126;-71
2022/02/15 06:16:28;;;;;;;37.28;21.55;;;;;;;3.28;57.06;99498.16;5092982;28;20047;-73
2022/02/15 06:19:00;;;;;;;42.92;25.60;;;;;;;3.34;57.19;99500.41;5094373;28;20154;-71
2022/02/15 06:21:31;;;;;;;41.42;22.00;;;;;;;3.40;57.25;99496.63;5077837;28;20075;-72
2022/02/15 06:23:58;;;;;;;38.58;21.80;;;;;;;3.44;56.95;99501.59;5096474;28;20087;-75
2022/02/15 06:26:25;;;;;;;37.42;21.90;;;;;;;3.52;57.10;99516.00;5101801;28;20058;-75
2022/02/15 06:28:52;;;;;;;40.25;23.35;;;;;;;3.56;57.02;99515.72;5105414;28;20058;-72
2022/02/15 06:31:19;;;;;;;44.42;23.35;;;;;;;3.60;56.96;99519.88;5092435;28;20048;-71
2022/02/15 06:33:46;;;;;;;42.50;22.38;;;;;;;3.66;56.87;99520.47;5083638;28;20062;-71
2022/02/15 06:36:13;;;;;;;52.42;25.10;;;;;;;3.69;56.90;99515.06;5083302;28;20040;-71
2022/02/15 06:38:42;;;;;;;45.10;23.65;;;;;;;3.74;56.90;99516.47;5083381;28;20051;-68
2022/02/15 06:41:09;;;;;;;38.15;21.90;;;;;;;3.79;57.02;99526.69;5083624;28;20048;-68
2022/02/15 06:43:36;;;;;;;38.75;20.35;;;;;;;3.84;57.04;99519.44;5084138;28;20040;-74
2022/02/15 06:46:03;;;;;;;40.72;22.10;;;;;;;3.91;56.89;99536.44;5083328;28;20111;-71
2022/02/15 06:48:30;;;;;;;41.58;19.38;;;;;;;3.97;56.89;99536.09;5082863;28;20040;-68
2022/02/15 06:50:57;;;;;;;42.45;22.48;;;;;;;4.03;56.86;99537.50;5079735;28;20044;-69
2022/02/15 06:53:25;;;;;;;42.30;24.17;;;;;;;4.11;56.67;99534.47;5082470;28;20119;-68
2022/02/15 06:55:53;;;;;;;38.97;21.52;;;;;;;4.18;56.72;99539.25;5081090;28;20539;-70
2022/02/15 06:58:20;;;;;;;41.75;21.48;;;;;;;4.27;56.60;99545.72;5082688;28;20054;-69
2022/02/15 07:00:47;;;;;;;37.15;20.23;;;;;;;4.36;56.45;99539.97;5080315;28;20054;-70
2022/02/15 07:03:14;;;;;;;39.20;21.58;;;;;;;4.43;56.37;99552.66;5081987;28;20135;-72
2022/02/15 07:05:41;;;;;;;38.83;22.75;;;;;;;4.44;56.47;99549.13;5081618;28;20047;-70
2022/02/15 07:08:08;;;;;;;47.83;21.23;;;;;;;4.48;56.48;99555.84;5080767;28;20040;-69
2022/02/15 07:10:36;;;;;;;37.97;21.70;;;;;;;4.53;56.51;99559.06;5081586;28;20056;-70
2022/02/15 07:13:04;;;;;;;41.97;21.75;;;;;;;4.57;56.38;99555.31;5081224;28;20044;-69
2022/02/15 07:15:31;;;;;;;47.33;24.08;;;;;;;4.59;56.48;99566.53;5081389;28;20076;-71
2022/02/15 07:17:58;;;;;;;43.85;22.77;;;;;;;4.61;56.33;99556.84;5081856;28;20044;-70
2022/02/15 07:20:25;;;;;;;41.40;23.70;;;;;;;4.64;56.37;99561.88;5079994;28;20065;-69
2022/02/15 07:22:52;;;;;;;35.28;20.50;;;;;;;4.72;56.31;99564.88;5081618;28;20040;-69
2022/02/15 07:25:19;;;;;;;50.58;24.77;;;;;;;4.75;56.20;99556.88;5083779;28;20538;-71
2022/02/15 07:27:46;;;;;;;41.20;21.33;;;;;;;4.80;56.13;99546.09;5101727;28;20094;-69
2022/02/15 07:30:15;;;;;;;38.42;21.63;;;;;;;4.89;56.15;99547.34;5100738;28;20137;-69
2022/02/15 07:32:41;;;;;;;36.55;21.60;;;;;;;4.96;55.95;99546.88;5101278;28;20069;-70
2022/02/15 07:35:09;;;;;;;40.92;23.60;;;;;;;5.08;55.81;99547.91;5100949;28;20050;-70
2022/02/15 07:37:36;;;;;;;45.10;25.13;;;;;;;5.19;55.64;99538.56;5100762;28;20040;-70
2022/02/15 07:40:04;;;;;;;46.15;29.25;;;;;;;5.34;55.51;99550.69;5101352;28;20143;-72
2022/02/15 07:42:31;;;;;;;48.03;28.40;;;;;;;5.44;55.22;99549.19;5100136;28;20497;-69
2022/02/15 07:44:59;;;;;;;45.05;24.08;;;;;;;5.50;55.17;99545.34;5099969;28;20048;-70
2022/02/15 07:47:27;;;;;;;35.45;21.95;;;;;;;5.55;55.26;99544.09;5102278;28;20048;-71
2022/02/15 07:49:54;;;;;;;34.95;23.90;;;;;;;5.68;55.00;99535.47;5101732;28;20494;-69
2022/02/15 07:52:21;;;;;;;37.20;20.58;;;;;;;5.89;54.59;99541.97;5104666;28;20044;-69
2022/02/15 07:54:48;;;;;;;39.08;21.35;;;;;;;6.12;54.27;99526.53;5103660;28;20047;-70
2022/02/15 07:57:15;;;;;;;34.38;18.90;;;;;;;6.36;53.76;99529.34;5103526;28;20050;-70
2022/02/15 07:59:42;;;;;;;42.42;22.20;;;;;;;6.53;53.46;99524.75;5104302;28;20050;-71
2022/02/15 08:02:08;;;;;;;37.05;24.00;;;;;;;6.60;53.24;99510.25;5104280;28;20054;-71
2022/02/15 08:04:37;;;;;;;33.50;19.83;;;;;;;6.73;53.13;99531.25;5103715;28;20700;-71
2022/02/15 08:07:05;;;;;;;32.90;20.80;;;;;;;6.79;52.98;99523.81;5086876;28;20047;-72
2022/02/15 08:09:32;;;;;;;30.70;19.73;;;;;;;6.82;53.01;99514.88;5104717;28;20047;-71
2022/02/15 08:12:08;;;;;;;41.15;22.50;;;;;;;6.82;52.76;99514.88;5104924;28;20056;-69
2022/02/15 08:14:35;;;;;;;42.25;24.25;;;;;;;6.91;52.73;99523.91;5105026;28;20055;-73
2022/02/15 08:17:02;;;;;;;40.28;23.75;;;;;;;7.01;52.52;99519.72;5104023;28;20043;-71
2022/02/15 08:19:29;;;;;;;42.83;22.38;;;;;;;7.06;52.51;99525.47;5102780;28;20046;-69
2022/02/15 08:21:59;;;;;;;43.60;22.80;;;;;;;7.15;52.26;99540.59;5105359;28;20048;-72
2022/02/15 08:24:28;;;;;;;38.03;20.67;;;;;;;7.19;52.20;99555.19;5103332;28;20043;-74
2022/02/15 08:26:55;;;;;;;40.65;23.58;;;;;;;7.30;52.05;99564.09;5105570;28;20111;-71
2022/02/15 08:29:22;;;;;;;32.75;22.38;;;;;;;7.38;51.97;99570.50;5105186;28;20642;-70
2022/02/15 08:31:50;;;;;;;43.47;26.85;;;;;;;7.51;51.64;99570.47;5103582;28;20130;-69
2022/02/15 08:34:17;;;;;;;42.55;23.80;;;;;;;7.60;51.62;99576.88;5103877;28;20640;-71
2022/02/15 08:36:44;;;;;;;52.83;25.77;;;;;;;7.76;51.26;99589.75;5104273;28;20121;-72
2022/02/15 08:39:15;;;;;;;41.83;23.20;;;;;;;7.77;51.21;99580.91;5103852;28;20047;-74
2022/02/15 08:41:42;;;;;;;46.05;22.95;;;;;;;7.78;51.08;99575.56;5104642;28;20130;-73
2022/02/15 08:44:09;;;;;;;46.95;27.10;;;;;;;7.71;51.30;99578.75;5104014;28;20048;-72
2022/02/15 08:46:36;;;;;;;40.30;24.35;;;;;;;7.63;51.68;99579.28;5104114;28;20524;-71
2022/02/15 08:49:03;;;;;;;37.28;22.00;;;;;;;7.63;51.47;99585.38;5102232;28;20078;-69
2022/02/15 08:51:30;;;;;;;41.88;24.13;;;;;;;7.58;51.49;99581.38;5103867;28;20082;-70
2022/02/15 08:53:57;;;;;;;36.47;22.10;;;;;;;7.62;51.46;99577.59;5103766;28;20039;-73
2022/02/15 08:56:26;;;;;;;46.85;26.02;;;;;;;7.72;51.41;99583.03;5104067;28;20498;-71
2022/02/15 08:58:53;;;;;;;48.83;26.15;;;;;;;7.74;51.30;99579.38;5103090;28;20052;-69
2022/02/15 09:01:20;;;;;;;38.85;23.83;;;;;;;7.83;51.01;99583.97;5103409;28;20048;-71
2022/02/15 09:03:47;;;;;;;43.22;24.48;;;;;;;7.93;50.92;99580.66;5104521;28;20040;-70
2022/02/15 09:06:14;;;;;;;40.78;23.50;;;;;;;8.08;50.76;99589.22;5102453;28;20048;-71
2022/02/15 09:08:41;;;;;;;41.10;25.67;;;;;;;8.14;50.46;99589.63;5103245;28;20048;-71
2022/02/15 09:11:09;;;;;;;42.05;23.88;;;;;;;8.17;50.62;99589.38;5104078;28;20046;-70
2022/02/15 09:13:38;;;;;;;41.45;23.35;;;;;;;8.21;50.44;99584.72;5102053;28;20039;-71
2022/02/15 09:16:05;;;;;;;38.25;21.30;;;;;;;8.26;50.34;99592.31;5102945;28;20050;-74
2022/02/15 09:18:32;;;;;;;42.13;23.42;;;;;;;8.23;50.43;99588.13;5103338;28;20050;-71
2022/02/15 09:20:59;;;;;;;36.70;24.50;;;;;;;8.24;50.45;99585.34;5100482;28;20053;-72
2022/02/15 09:23:26;;;;;;;43.65;24.05;;;;;;;8.37;50.29;99594.97;5104016;28;20050;-75
2022/02/15 09:25:53;;;;;;;41.08;23.98;;;;;;;8.47;50.07;99593.38;5104467;28;20678;-72
2022/02/15 09:28:20;;;;;;;44.30;20.98;;;;;;;8.60;49.81;99594.13;5103218;28;20046;-73
2022/02/15 09:30:54;;;;;;;36.40;22.33;;;;;;;8.61;49.98;99593.19;5104269;28;20123;-71
2022/02/15 09:33:21;;;;;;;39.72;25.35;;;;;;;8.61;49.75;99598.47;5103943;28;20044;-70
2022/02/15 09:35:48;;;;;;;38.38;24.27;;;;;;;8.77;49.50;99597.31;5101482;28;20056;-70
2022/02/15 09:38:16;;;;;;;37.53;24.85;;;;;;;9.04;49.14;99591.75;5104364;28;20670;-75
2022/02/15 09:40:43;;;;;;;43.60;25.63;;;;;;;9.18;48.90;99578.34;5103044;28;20040;-70
2022/02/15 09:43:11;;;;;;;35.42;24.48;;;;;;;9.15;49.02;99580.38;5102215;28;20090;-69
2022/02/15 09:45:39;;;;;;;40.25;26.02;;;;;;;9.20;48.87;99578.22;5103203;28;20046;-70
2022/02/15 09:48:10;;;;;;;42.15;24.55;;;;;;;9.36;48.85;99589.25;5103170;28;20411;-70
2022/02/15 09:50:38;;;;;;;42.22;24.48;;;;;;;9.62;48.47;99589.00;5100502;28;20460;-71
2022/02/15 09:53:05;;;;;;;36.45;24.42;;;;;;;9.77;48.22;99600.94;5103433;28;20487;-69
2022/02/15 09:55:32;;;;;;;40.22;23.52;;;;;;;9.87;48.02;99608.16;5105402;28;20131;-67
2022/02/15 09:58:01;;;;;;;39.63;23.30;;;;;;;9.87;47.92;99601.06;5108144;28;20059;-67
2022/02/15 10:00:28;;;;;;;39.17;23.55;;;;;;;9.78;47.92;99609.72;5107118;28;20060;-68
2022/02/15 10:02:57;;;;;;;40.33;24.83;;;;;;;9.69;47.78;99602.53;5105856;28;20058;-70
2022/02/15 10:05:32;;;;;;;42.70;23.75;;;;;;;9.69;48.09;99602.53;5104454;28;20505;-70
2022/02/15 10:07:59;;;;;;;44.03;26.50;;;;;;;9.81;47.74;99593.63;5103863;28;20057;-70
2022/02/15 10:10:31;;;;;;;41.72;24.10;;;;;;;9.82;47.59;99584.75;5102860;28;20048;-72
2022/02/15 10:12:59;;;;;;;37.85;25.33;;;;;;;9.89;47.59;99590.41;5106465;28;20126;-71
2022/02/15 10:15:34;;;;;;;43.45;27.33;;;;;;;10.02;47.34;99583.16;5104642;28;20050;-71
2022/02/15 10:18:06;;;;;;;45.15;26.65;;;;;;;10.09;47.09;99584.34;5106596;28;20601;-74
2022/02/15 10:20:34;;;;;;;43.72;26.00;;;;;;;10.20;46.95;99580.00;5102566;28;20050;-70
2022/02/15 10:23:16;;;;;;;42.40;24.08;;;;;;;10.31;46.80;99574.69;5106605;28;20043;-70
2022/02/15 10:25:43;;;;;;;42.05;24.23;;;;;;;10.39;46.55;99577.56;5101795;28;20314;-70
2022/02/15 10:28:14;;;;;;;41.80;26.42;;;;;;;10.51;46.55;99573.91;5104057;28;20218;-70
2022/02/15 10:30:44;;;;;;;60.25;30.08;;;;;;;10.62;46.38;99582.72;5102684;28;20061;-72
2022/02/15 10:33:11;;;;;;;46.58;27.10;;;;;;;10.85;46.00;99584.25;5101126;28;20039;-69
2022/02/15 10:35:43;;;;;;;50.90;30.15;;;;;;;10.93;45.55;99581.00;5101558;28;20214;-70
2022/02/15 10:38:10;;;;;;;44.35;28.63;;;;;;;10.88;45.75;99584.00;5101848;28;20108;-70
2022/02/15 10:40:37;;;;;;;51.60;28.05;;;;;;;10.90;45.69;99587.34;5111718;28;20052;-69
2022/02/15 10:43:04;;;;;;;46.38;30.55;;;;;;;10.84;45.99;99594.94;5120132;28;20107;-70
2022/02/15 10:45:31;;;;;;;48.53;26.88;;;;;;;10.73;46.01;99590.56;5118642;28;20107;-68
2022/02/15 10:48:07;;;;;;;48.88;29.17;;;;;;;10.69;46.11;99600.53;5119905;28;20071;-69
2022/02/15 10:50:37;;;;;;;46.17;29.90;;;;;;;10.69;46.09;99600.53;5085856;28;20035;-70
2022/02/15 10:53:06;;;;;;;46.03;28.80;;;;;;;10.71;46.19;99598.66;5120224;28;20067;-72
2022/02/15 10:55:34;;;;;;;49.80;27.42;;;;;;;10.74;46.19;99597.53;5123796;28;20059;-70
2022/02/15 10:58:02;;;;;;;45.72;29.23;;;;;;;10.67;46.26;99601.66;5123767;28;20098;-70
2022/02/15 11:00:30;;;;;;;51.25;31.92;;;;;;;10.65;46.34;99601.78;5121175;28;20051;-69
2022/02/15 11:02:58;;;;;;;47.83;32.17;;;;;;;10.65;46.33;99601.78;5124643;28;20039;-70
2022/02/15 11:05:25;;;;;;;48.03;27.88;;;;;;;10.57;46.38;99596.31;5124471;28;20047;-75
2022/02/15 11:07:53;;;;;;;47.20;28.48;;;;;;;10.58;46.33;99605.06;5121682;28;20036;-74
2022/02/15 11:10:26;;;;;;;44.28;26.73;;;;;;;10.39;46.62;99609.22;5120264;28;20099;-72
2022/02/15 11:12:56;;;;;;;45.10;27.40;;;;;;;10.25;46.78;99609.50;5121557;28;20116;-71
2022/02/15 11:15:25;;;;;;;53.20;29.05;;;;;;;10.14;47.05;99610.38;5119142;28;20099;-72
2022/02/15 11:17:53;;;;;;;47.22;26.98;;;;;;;10.11;47.25;99611.44;5117723;28;20100;-73
2022/02/15 11:20:23;;;;;;;44.33;27.85;;;;;;;10.13;47.06;99611.31;5115424;28;20062;-71
2022/02/15 11:22:53;;;;;;;44.25;27.58;;;;;;;10.04;47.01;99618.16;5110951;28;20123;-72
2022/02/15 11:25:33;;;;;;;47.00;28.23;;;;;;;9.86;47.61;99617.84;5106803;28;20048;-74
2022/02/15 11:28:08;;;;;;;44.65;27.48;;;;;;;9.71;47.68;99619.91;5107077;28;20121;-71
2022/02/15 11:30:46;;;;;;;38.58;24.67;;;;;;;9.58;47.87;99624.47;5106739;28;20481;-73
2022/02/15 11:33:20;;;;;;;54.13;28.05;;;;;;;9.50;48.07;99621.59;5105784;28;20050;-71